sensor_id;sensor_type;location;lat;lon;timestamp;temperature;humidity
10530;DHT22;5313;48.834;9.228;2022-10-16T00:01:21;16.60;99.90
10530;DHT22;5313;48.834;9.228;2022-10-16T00:03:47;16.60;99.90
10530;DHT22;5313;48.834;9.228;2022-10-16T00:06:15;16.50;99.90
10530;DHT22;5313;48.834;9.228;2022-10-16T00:08:41;16.30;99.90
10530;DHT22;5313;48.834;9.228;2022-10-16T00:11:09;16.50;99.90
10530;DHT22;5313;48.834;9.228;2022-10-16T00:13:36;16.50;99.90
10530;DHT22;5313;48.834;9.228;2022-10-16T00:16:03;16.50;99.90
10530;DHT22;5313;48.834;9.228;2022-10-16T00:18:29;16.50;99.90
10530;DHT22;5313;48.834;9.228;2022-10-16T00:20:55;17.00;99.90
10530;DHT22;5313;48.834;9.228;2022-10-16T00:23:21;16.50;99.90
10530;DHT22;5313;48.834;9.228;2022-10-16T00:25:57;16.50;99.90
10530;DHT22;5313;48.834;9.228;2022-10-16T00:28:23;16.40;99.90
10530;DHT22;5313;48.834;9.228;2022-10-16T00:30:49;16.40;99.90
10530;DHT22;5313;48.834;9.228;2022-10-16T00:33:14;16.40;99.90
10530;DHT22;5313;48.834;9.228;2022-10-16T00:35:40;16.30;99.90
10530;DHT22;5313;48.834;9.228;2022-10-16T00:38:05;16.30;99.90
10530;DHT22;5313;48.834;9.228;2022-10-16T00:40:31;16.40;99.90
10530;DHT22;5313;48.834;9.228;2022-10-16T00:42:57;16.30;99.90
10530;DHT22;5313;48.834;9.228;2022-10-16T00:45:22;16.30;99.90
10530;DHT22;5313;48.834;9.228;2022-10-16T00:47:49;16.30;99.90
10530;DHT22;5313;48.834;9.228;2022-10-16T00:50:30;16.30;99.90
10530;DHT22;5313;48.834;9.228;2022-10-16T00:52:58;16.20;99.90
10530;DHT22;5313;48.834;9.228;2022-10-16T00:55:24;16.20;99.90
10530;DHT22;5313;48.834;9.228;2022-10-16T00:57:50;16.20;99.90
10530;DHT22;5313;48.834;9.228;2022-10-16T01:00:21;16.10;99.90
10530;DHT22;5313;48.834;9.228;2022-10-16T01:02:59;16.10;99.90
10530;DHT22;5313;48.834;9.228;2022-10-16T01:05:41;16.10;99.90
10530;DHT22;5313;48.834;9.228;2022-10-16T01:08:17;16.10;99.90
10530;DHT22;5313;48.834;9.228;2022-10-16T01:10:57;16.10;99.90
10530;DHT22;5313;48.834;9.228;2022-10-16T01:13:36;16.10;99.90
10530;DHT22;5313;48.834;9.228;2022-10-16T01:16:13;16.10;99.90
10530;DHT22;5313;48.834;9.228;2022-10-16T01:18:47;16.00;99.90
10530;DHT22;5313;48.834;9.228;2022-10-16T01:21:26;16.00;99.90
10530;DHT22;5313;48.834;9.228;2022-10-16T01:24:17;16.00;99.90
10530;DHT22;5313;48.834;9.228;2022-10-16T01:29:52;16.00;99.90
10530;DHT22;5313;48.834;9.228;2022-10-16T01:32:38;16.10;99.90
10530;DHT22;5313;48.834;9.228;2022-10-16T01:35:24;16.00;99.90
10530;DHT22;5313;48.834;9.228;2022-10-16T01:40:28;16.00;99.90
10530;DHT22;5313;48.834;9.228;2022-10-16T01:42:59;16.00;99.90
10530;DHT22;5313;48.834;9.228;2022-10-16T01:45:26;16.00;99.90
10530;DHT22;5313;48.834;9.228;2022-10-16T01:47:53;16.00;99.90
10530;DHT22;5313;48.834;9.228;2022-10-16T01:50:20;16.00;99.90
10530;DHT22;5313;48.834;9.228;2022-10-16T01:52:49;16.10;99.90
10530;DHT22;5313;48.834;9.228;2022-10-16T01:55:21;16.10;99.90
10530;DHT22;5313;48.834;9.228;2022-10-16T01:57:49;16.10;99.90
10530;DHT22;5313;48.834;9.228;2022-10-16T02:00:16;16.00;99.90
10530;DHT22;5313;48.834;9.228;2022-10-16T02:02:45;16.10;99.90
10530;DHT22;5313;48.834;9.228;2022-10-16T02:07:47;16.10;99.90
10530;DHT22;5313;48.834;9.228;2022-10-16T02:10:13;16.10;99.90
10530;DHT22;5313;48.834;9.228;2022-10-16T02:12:42;16.10;99.90
10530;DHT22;5313;48.834;9.228;2022-10-16T02:15:09;16.20;99.90
10530;DHT22;5313;48.834;9.228;2022-10-16T02:17:35;16.10;99.90
10530;DHT22;5313;48.834;9.228;2022-10-16T02:20:02;16.10;99.90
10530;DHT22;5313;48.834;9.228;2022-10-16T02:22:32;16.00;99.90
10530;DHT22;5313;48.834;9.228;2022-10-16T02:25:05;16.00;99.90
10530;DHT22;5313;48.834;9.228;2022-10-16T02:27:57;15.60;99.90
10530;DHT22;5313;48.834;9.228;2022-10-16T02:30:38;16.00;99.90
10530;DHT22;5313;48.834;9.228;2022-10-16T02:33:08;16.00;99.90
10530;DHT22;5313;48.834;9.228;2022-10-16T02:35:35;16.00;99.90
10530;DHT22;5313;48.834;9.228;2022-10-16T02:38:01;15.90;99.90
10530;DHT22;5313;48.834;9.228;2022-10-16T02:40:27;15.80;99.90
10530;DHT22;5313;48.834;9.228;2022-10-16T02:42:54;15.60;99.90
10530;DHT22;5313;48.834;9.228;2022-10-16T02:45:20;15.60;99.90
10530;DHT22;5313;48.834;9.228;2022-10-16T02:47:46;15.60;99.90
10530;DHT22;5313;48.834;9.228;2022-10-16T02:50:12;15.50;99.90
10530;DHT22;5313;48.834;9.228;2022-10-16T02:52:37;15.50;99.90
10530;DHT22;5313;48.834;9.228;2022-10-16T02:55:03;15.40;99.90
10530;DHT22;5313;48.834;9.228;2022-10-16T02:57:29;15.40;99.90
10530;DHT22;5313;48.834;9.228;2022-10-16T02:59:54;15.40;99.90
10530;DHT22;5313;48.834;9.228;2022-10-16T03:02:20;15.40;99.90
10530;DHT22;5313;48.834;9.228;2022-10-16T03:04:46;15.40;99.90
10530;DHT22;5313;48.834;9.228;2022-10-16T03:07:12;15.30;99.90
10530;DHT22;5313;48.834;9.228;2022-10-16T03:09:37;15.40;99.90
10530;DHT22;5313;48.834;9.228;2022-10-16T03:12:03;15.40;99.90
10530;DHT22;5313;48.834;9.228;2022-10-16T03:14:28;15.40;99.90
10530;DHT22;5313;48.834;9.228;2022-10-16T03:16:54;15.40;99.90
10530;DHT22;5313;48.834;9.228;2022-10-16T03:19:19;15.40;99.90
10530;DHT22;5313;48.834;9.228;2022-10-16T03:21:45;15.30;99.90
10530;DHT22;5313;48.834;9.228;2022-10-16T03:24:11;15.30;99.90
10530;DHT22;5313;48.834;9.228;2022-10-16T03:26:37;15.30;99.90
10530;DHT22;5313;48.834;9.228;2022-10-16T03:29:03;15.40;99.90
10530;DHT22;5313;48.834;9.228;2022-10-16T03:31:29;15.30;99.90
10530;DHT22;5313;48.834;9.228;2022-10-16T03:33:55;15.40;99.90
10530;DHT22;5313;48.834;9.228;2022-10-16T03:36:21;15.40;99.90
10530;DHT22;5313;48.834;9.228;2022-10-16T03:38:46;15.50;99.90
10530;DHT22;5313;48.834;9.228;2022-10-16T03:41:12;15.50;99.90
10530;DHT22;5313;48.834;9.228;2022-10-16T03:43:38;15.50;99.90
10530;DHT22;5313;48.834;9.228;2022-10-16T03:46:04;15.50;99.90
10530;DHT22;5313;48.834;9.228;2022-10-16T03:48:29;15.50;99.90
10530;DHT22;5313;48.834;9.228;2022-10-16T03:50:55;15.50;99.90
10530;DHT22;5313;48.834;9.228;2022-10-16T03:53:21;15.50;99.90
10530;DHT22;5313;48.834;9.228;2022-10-16T03:55:46;15.60;99.90
10530;DHT22;5313;48.834;9.228;2022-10-16T03:58:12;15.50;99.90
10530;DHT22;5313;48.834;9.228;2022-10-16T04:00:42;15.30;99.90
10530;DHT22;5313;48.834;9.228;2022-10-16T04:03:08;15.10;99.90
10530;DHT22;5313;48.834;9.228;2022-10-16T04:05:33;15.00;99.90
10530;DHT22;5313;48.834;9.228;2022-10-16T04:07:59;15.10;99.90
10530;DHT22;5313;48.834;9.228;2022-10-16T04:10:24;15.00;99.90
10530;DHT22;5313;48.834;9.228;2022-10-16T04:12:50;15.00;99.90
10530;DHT22;5313;48.834;9.228;2022-10-16T04:15:15;15.00;99.90
10530;DHT22;5313;48.834;9.228;2022-10-16T04:17:41;15.00;99.90
10530;DHT22;5313;48.834;9.228;2022-10-16T04:20:07;15.00;99.90
10530;DHT22;5313;48.834;9.228;2022-10-16T04:22:33;14.90;99.90
10530;DHT22;5313;48.834;9.228;2022-10-16T04:24:58;14.90;99.90
10530;DHT22;5313;48.834;9.228;2022-10-16T04:27:24;14.90;99.90
10530;DHT22;5313;48.834;9.228;2022-10-16T04:29:49;15.00;99.90
10530;DHT22;5313;48.834;9.228;2022-10-16T04:32:15;14.90;99.90
10530;DHT22;5313;48.834;9.228;2022-10-16T04:34:40;14.90;99.90
10530;DHT22;5313;48.834;9.228;2022-10-16T04:37:06;15.00;99.90
10530;DHT22;5313;48.834;9.228;2022-10-16T04:39:32;14.90;99.90
10530;DHT22;5313;48.834;9.228;2022-10-16T04:41:57;14.90;99.90
10530;DHT22;5313;48.834;9.228;2022-10-16T04:44:23;14.90;99.90
10530;DHT22;5313;48.834;9.228;2022-10-16T04:46:51;14.90;99.90
10530;DHT22;5313;48.834;9.228;2022-10-16T04:49:16;14.90;99.90
10530;DHT22;5313;48.834;9.228;2022-10-16T04:51:42;14.90;99.90
10530;DHT22;5313;48.834;9.228;2022-10-16T04:54:09;14.90;99.90
10530;DHT22;5313;48.834;9.228;2022-10-16T04:56:35;14.90;99.90
10530;DHT22;5313;48.834;9.228;2022-10-16T04:59:08;14.90;99.90
10530;DHT22;5313;48.834;9.228;2022-10-16T05:01:33;14.90;99.90
10530;DHT22;5313;48.834;9.228;2022-10-16T05:03:59;14.90;99.90
10530;DHT22;5313;48.834;9.228;2022-10-16T05:06:24;14.90;99.90
10530;DHT22;5313;48.834;9.228;2022-10-16T05:08:50;14.80;99.90
10530;DHT22;5313;48.834;9.228;2022-10-16T05:11:15;14.90;99.90
10530;DHT22;5313;48.834;9.228;2022-10-16T05:13:41;14.90;99.90
10530;DHT22;5313;48.834;9.228;2022-10-16T05:16:06;15.00;99.90
10530;DHT22;5313;48.834;9.228;2022-10-16T05:18:32;14.90;99.90
10530;DHT22;5313;48.834;9.228;2022-10-16T05:20:57;14.90;99.90
10530;DHT22;5313;48.834;9.228;2022-10-16T05:23:23;14.90;99.90
10530;DHT22;5313;48.834;9.228;2022-10-16T05:25:55;14.90;99.90
10530;DHT22;5313;48.834;9.228;2022-10-16T05:28:24;14.90;99.90
10530;DHT22;5313;48.834;9.228;2022-10-16T05:30:49;14.80;99.90
10530;DHT22;5313;48.834;9.228;2022-10-16T05:33:15;14.80;99.90
10530;DHT22;5313;48.834;9.228;2022-10-16T05:35:41;14.70;99.90
10530;DHT22;5313;48.834;9.228;2022-10-16T05:38:06;14.70;99.90
10530;DHT22;5313;48.834;9.228;2022-10-16T05:40:32;14.70;99.90
10530;DHT22;5313;48.834;9.228;2022-10-16T05:42:57;14.70;99.90
10530;DHT22;5313;48.834;9.228;2022-10-16T05:45:23;14.70;99.90
10530;DHT22;5313;48.834;9.228;2022-10-16T05:47:48;14.70;99.90
10530;DHT22;5313;48.834;9.228;2022-10-16T05:50:14;14.70;99.90
10530;DHT22;5313;48.834;9.228;2022-10-16T05:52:39;14.70;99.90
10530;DHT22;5313;48.834;9.228;2022-10-16T05:55:05;14.60;99.90
10530;DHT22;5313;48.834;9.228;2022-10-16T05:57:31;14.70;99.90
10530;DHT22;5313;48.834;9.228;2022-10-16T05:59:56;14.70;99.90
10530;DHT22;5313;48.834;9.228;2022-10-16T06:02:22;14.70;99.90
10530;DHT22;5313;48.834;9.228;2022-10-16T06:04:48;14.70;99.90
10530;DHT22;5313;48.834;9.228;2022-10-16T06:07:13;13.60;99.90
10530;DHT22;5313;48.834;9.228;2022-10-16T06:09:39;14.70;99.90
10530;DHT22;5313;48.834;9.228;2022-10-16T06:12:04;14.70;99.90
10530;DHT22;5313;48.834;9.228;2022-10-16T06:14:30;14.70;99.90
10530;DHT22;5313;48.834;9.228;2022-10-16T06:16:55;14.80;99.90
10530;DHT22;5313;48.834;9.228;2022-10-16T06:19:21;14.80;99.90
10530;DHT22;5313;48.834;9.228;2022-10-16T06:21:48;14.90;99.90
10530;DHT22;5313;48.834;9.228;2022-10-16T06:24:13;14.90;99.90
10530;DHT22;5313;48.834;9.228;2022-10-16T06:26:39;14.80;99.90
10530;DHT22;5313;48.834;9.228;2022-10-16T06:29:05;14.80;99.90
10530;DHT22;5313;48.834;9.228;2022-10-16T06:31:30;14.90;99.90
10530;DHT22;5313;48.834;9.228;2022-10-16T06:33:59;14.90;99.90
10530;DHT22;5313;48.834;9.228;2022-10-16T06:36:25;14.80;99.90
10530;DHT22;5313;48.834;9.228;2022-10-16T06:38:51;14.90;99.90
10530;DHT22;5313;48.834;9.228;2022-10-16T06:41:19;14.90;99.90
10530;DHT22;5313;48.834;9.228;2022-10-16T06:43:45;15.00;99.90
10530;DHT22;5313;48.834;9.228;2022-10-16T06:46:13;15.00;99.90
10530;DHT22;5313;48.834;9.228;2022-10-16T06:48:38;15.10;99.90
10530;DHT22;5313;48.834;9.228;2022-10-16T06:51:07;15.10;99.90
10530;DHT22;5313;48.834;9.228;2022-10-16T06:53:35;15.20;99.90
10530;DHT22;5313;48.834;9.228;2022-10-16T06:56:15;15.20;99.90
10530;DHT22;5313;48.834;9.228;2022-10-16T06:58:41;15.20;99.90
10530;DHT22;5313;48.834;9.228;2022-10-16T07:01:07;15.20;99.90
10530;DHT22;5313;48.834;9.228;2022-10-16T07:03:33;15.20;99.90
10530;DHT22;5313;48.834;9.228;2022-10-16T07:06:02;15.20;99.90
10530;DHT22;5313;48.834;9.228;2022-10-16T07:08:34;15.30;99.90
10530;DHT22;5313;48.834;9.228;2022-10-16T07:11:00;15.30;99.90
10530;DHT22;5313;48.834;9.228;2022-10-16T07:13:26;15.30;99.90
10530;DHT22;5313;48.834;9.228;2022-10-16T07:15:52;15.30;99.90
10530;DHT22;5313;48.834;9.228;2022-10-16T07:18:17;15.30;99.90
10530;DHT22;5313;48.834;9.228;2022-10-16T07:20:43;16.20;99.90
10530;DHT22;5313;48.834;9.228;2022-10-16T07:23:09;15.40;99.90
10530;DHT22;5313;48.834;9.228;2022-10-16T07:25:34;15.50;99.90
10530;DHT22;5313;48.834;9.228;2022-10-16T07:28:00;15.50;99.90
10530;DHT22;5313;48.834;9.228;2022-10-16T07:30:25;15.60;99.90
10530;DHT22;5313;48.834;9.228;2022-10-16T07:32:51;15.50;99.90
10530;DHT22;5313;48.834;9.228;2022-10-16T07:35:16;15.50;99.90
10530;DHT22;5313;48.834;9.228;2022-10-16T07:37:46;15.50;99.90
10530;DHT22;5313;48.834;9.228;2022-10-16T07:40:12;15.60;99.90
10530;DHT22;5313;48.834;9.228;2022-10-16T07:42:37;15.60;99.90
10530;DHT22;5313;48.834;9.228;2022-10-16T07:45:03;15.50;99.90
10530;DHT22;5313;48.834;9.228;2022-10-16T07:47:29;15.50;99.90
10530;DHT22;5313;48.834;9.228;2022-10-16T07:49:54;15.60;99.90
10530;DHT22;5313;48.834;9.228;2022-10-16T07:52:20;15.50;99.90
10530;DHT22;5313;48.834;9.228;2022-10-16T07:54:45;15.60;99.90
10530;DHT22;5313;48.834;9.228;2022-10-16T07:57:11;15.70;99.90
10530;DHT22;5313;48.834;9.228;2022-10-16T07:59:37;15.70;99.90
10530;DHT22;5313;48.834;9.228;2022-10-16T08:02:02;15.80;99.90
10530;DHT22;5313;48.834;9.228;2022-10-16T08:04:28;16.00;99.90
10530;DHT22;5313;48.834;9.228;2022-10-16T08:06:53;16.00;99.90
10530;DHT22;5313;48.834;9.228;2022-10-16T08:09:19;16.00;99.90
10530;DHT22;5313;48.834;9.228;2022-10-16T08:11:45;16.10;99.90
10530;DHT22;5313;48.834;9.228;2022-10-16T08:14:10;16.20;99.90
10530;DHT22;5313;48.834;9.228;2022-10-16T08:16:36;16.10;99.90
10530;DHT22;5313;48.834;9.228;2022-10-16T08:19:02;16.30;99.90
10530;DHT22;5313;48.834;9.228;2022-10-16T08:21:28;16.40;99.90
10530;DHT22;5313;48.834;9.228;2022-10-16T08:23:53;16.50;99.90
10530;DHT22;5313;48.834;9.228;2022-10-16T08:26:20;16.60;99.90
10530;DHT22;5313;48.834;9.228;2022-10-16T08:28:45;16.50;99.90
10530;DHT22;5313;48.834;9.228;2022-10-16T08:31:13;16.80;99.90
10530;DHT22;5313;48.834;9.228;2022-10-16T08:33:40;17.00;99.90
10530;DHT22;5313;48.834;9.228;2022-10-16T08:36:06;17.30;99.90
10530;DHT22;5313;48.834;9.228;2022-10-16T08:38:33;17.50;99.90
10530;DHT22;5313;48.834;9.228;2022-10-16T08:44:12;17.80;99.90
10530;DHT22;5313;48.834;9.228;2022-10-16T08:49:14;17.60;99.90
10530;DHT22;5313;48.834;9.228;2022-10-16T08:51:40;18.10;99.90
10530;DHT22;5313;48.834;9.228;2022-10-16T08:54:22;18.10;99.90
10530;DHT22;5313;48.834;9.228;2022-10-16T08:56:48;18.20;99.90
10530;DHT22;5313;48.834;9.228;2022-10-16T08:59:15;18.30;99.90
10530;DHT22;5313;48.834;9.228;2022-10-16T09:01:45;18.30;99.90
10530;DHT22;5313;48.834;9.228;2022-10-16T09:07:01;18.50;99.90
10530;DHT22;5313;48.834;9.228;2022-10-16T09:12:26;18.60;99.90
10530;DHT22;5313;48.834;9.228;2022-10-16T09:20:51;18.70;99.90
10530;DHT22;5313;48.834;9.228;2022-10-16T09:23:27;18.90;99.90
10530;DHT22;5313;48.834;9.228;2022-10-16T09:25:55;19.00;99.90
10530;DHT22;5313;48.834;9.228;2022-10-16T09:28:21;19.00;99.90
10530;DHT22;5313;48.834;9.228;2022-10-16T09:30:47;19.30;99.90
10530;DHT22;5313;48.834;9.228;2022-10-16T09:33:18;19.50;99.90
10530;DHT22;5313;48.834;9.228;2022-10-16T09:35:46;19.40;99.90
10530;DHT22;5313;48.834;9.228;2022-10-16T09:38:23;19.50;99.90
10530;DHT22;5313;48.834;9.228;2022-10-16T09:40:49;19.50;99.90
10530;DHT22;5313;48.834;9.228;2022-10-16T09:46:05;19.60;99.90
10530;DHT22;5313;48.834;9.228;2022-10-16T09:48:43;19.60;99.90
10530;DHT22;5313;48.834;9.228;2022-10-16T09:51:22;19.60;99.90
10530;DHT22;5313;48.834;9.228;2022-10-16T09:53:55;19.50;99.90
10530;DHT22;5313;48.834;9.228;2022-10-16T09:56:30;19.60;99.90
10530;DHT22;5313;48.834;9.228;2022-10-16T09:59:45;19.80;99.90
10530;DHT22;5313;48.834;9.228;2022-10-16T10:01:55;20.10;99.90
10530;DHT22;5313;48.834;9.228;2022-10-16T10:04:23;20.60;99.90
10530;DHT22;5313;48.834;9.228;2022-10-16T10:06:51;20.70;99.90
10530;DHT22;5313;48.834;9.228;2022-10-16T10:09:27;20.90;99.90
10530;DHT22;5313;48.834;9.228;2022-10-16T10:12:01;21.70;99.90
10530;DHT22;5313;48.834;9.228;2022-10-16T10:14:37;21.80;99.90
10530;DHT22;5313;48.834;9.228;2022-10-16T10:22:45;21.50;99.90
10530;DHT22;5313;48.834;9.228;2022-10-16T10:27:56;21.80;99.90
10530;DHT22;5313;48.834;9.228;2022-10-16T10:30:34;22.10;99.90
10530;DHT22;5313;48.834;9.228;2022-10-16T10:49:34;24.60;99.90
10530;DHT22;5313;48.834;9.228;2022-10-16T10:52:41;24.20;99.90
10530;DHT22;5313;48.834;9.228;2022-10-16T10:55:09;24.10;99.90
10530;DHT22;5313;48.834;9.228;2022-10-16T11:00:20;24.20;99.90
10530;DHT22;5313;48.834;9.228;2022-10-16T11:03:06;24.60;99.90
10530;DHT22;5313;48.834;9.228;2022-10-16T11:05:51;25.70;99.90
10530;DHT22;5313;48.834;9.228;2022-10-16T11:11:07;25.90;99.90
10530;DHT22;5313;48.834;9.228;2022-10-16T11:16:26;25.60;99.90
10530;DHT22;5313;48.834;9.228;2022-10-16T11:19:14;25.30;99.90
10530;DHT22;5313;48.834;9.228;2022-10-16T11:21:54;25.00;99.90
10530;DHT22;5313;48.834;9.228;2022-10-16T11:24:24;25.30;99.90
10530;DHT22;5313;48.834;9.228;2022-10-16T11:26:56;25.50;99.90
10530;DHT22;5313;48.834;9.228;2022-10-16T11:29:29;25.80;99.90
10530;DHT22;5313;48.834;9.228;2022-10-16T11:32:04;25.90;99.90
10530;DHT22;5313;48.834;9.228;2022-10-16T11:34:41;25.40;99.90
10530;DHT22;5313;48.834;9.228;2022-10-16T11:37:19;25.50;99.90
10530;DHT22;5313;48.834;9.228;2022-10-16T11:39:45;25.70;99.90
10530;DHT22;5313;48.834;9.228;2022-10-16T11:42:32;25.30;99.90
10530;DHT22;5313;48.834;9.228;2022-10-16T11:47:40;25.50;99.90
10530;DHT22;5313;48.834;9.228;2022-10-16T11:50:25;26.00;99.90
10530;DHT22;5313;48.834;9.228;2022-10-16T11:53:13;26.50;99.90
10530;DHT22;5313;48.834;9.228;2022-10-16T11:55:44;26.50;99.90
10530;DHT22;5313;48.834;9.228;2022-10-16T11:58:33;26.30;99.90
10530;DHT22;5313;48.834;9.228;2022-10-16T12:01:39;26.70;99.90
10530;DHT22;5313;48.834;9.228;2022-10-16T12:09:26;26.40;99.90
10530;DHT22;5313;48.834;9.228;2022-10-16T12:11:53;26.00;99.90
10530;DHT22;5313;48.834;9.228;2022-10-16T12:16:56;25.80;99.90
10530;DHT22;5313;48.834;9.228;2022-10-16T12:19:23;26.30;99.90
10530;DHT22;5313;48.834;9.228;2022-10-16T12:21:50;26.20;99.90
10530;DHT22;5313;48.834;9.228;2022-10-16T12:24:29;26.70;99.90
10530;DHT22;5313;48.834;9.228;2022-10-16T12:26:56;26.70;99.90
10530;DHT22;5313;48.834;9.228;2022-10-16T12:29:37;25.50;99.90
10530;DHT22;5313;48.834;9.228;2022-10-16T12:32:30;25.30;99.90
10530;DHT22;5313;48.834;9.228;2022-10-16T12:34:57;25.30;99.90
10530;DHT22;5313;48.834;9.228;2022-10-16T12:37:31;26.00;99.90
10530;DHT22;5313;48.834;9.228;2022-10-16T12:39:58;26.10;99.90
10530;DHT22;5313;48.834;9.228;2022-10-16T12:44:54;26.00;99.90
10530;DHT22;5313;48.834;9.228;2022-10-16T12:47:35;26.30;99.90
10530;DHT22;5313;48.834;9.228;2022-10-16T12:50:00;26.50;99.90
10530;DHT22;5313;48.834;9.228;2022-10-16T12:52:38;26.70;99.90
10530;DHT22;5313;48.834;9.228;2022-10-16T12:55:12;27.10;99.90
10530;DHT22;5313;48.834;9.228;2022-10-16T13:00:41;28.00;99.90
10530;DHT22;5313;48.834;9.228;2022-10-16T13:06:08;28.30;99.90
10530;DHT22;5313;48.834;9.228;2022-10-16T13:20:06;26.20;99.90
10530;DHT22;5313;48.834;9.228;2022-10-16T13:22:56;26.10;99.90
10530;DHT22;5313;48.834;9.228;2022-10-16T13:28:05;26.90;99.90
10530;DHT22;5313;48.834;9.228;2022-10-16T13:30:37;27.00;99.90
10530;DHT22;5313;48.834;9.228;2022-10-16T13:35:36;26.10;99.90
10530;DHT22;5313;48.834;9.228;2022-10-16T13:38:13;25.30;99.90
10530;DHT22;5313;48.834;9.228;2022-10-16T13:43:23;25.40;99.90
10530;DHT22;5313;48.834;9.228;2022-10-16T13:46:11;25.00;99.90
10530;DHT22;5313;48.834;9.228;2022-10-16T13:48:37;24.70;99.90
10530;DHT22;5313;48.834;9.228;2022-10-16T13:51:12;24.30;99.90
10530;DHT22;5313;48.834;9.228;2022-10-16T13:53:39;24.00;99.90
10530;DHT22;5313;48.834;9.228;2022-10-16T13:56:10;23.80;99.90
10530;DHT22;5313;48.834;9.228;2022-10-16T13:58:36;23.70;99.90
10530;DHT22;5313;48.834;9.228;2022-10-16T14:01:16;23.70;99.90
10530;DHT22;5313;48.834;9.228;2022-10-16T14:03:43;23.60;99.90
10530;DHT22;5313;48.834;9.228;2022-10-16T14:06:16;23.50;99.90
10530;DHT22;5313;48.834;9.228;2022-10-16T14:08:45;23.40;99.90
10530;DHT22;5313;48.834;9.228;2022-10-16T14:11:12;23.20;99.90
10530;DHT22;5313;48.834;9.228;2022-10-16T14:13:43;23.20;99.90
10530;DHT22;5313;48.834;9.228;2022-10-16T14:16:16;23.20;99.90
10530;DHT22;5313;48.834;9.228;2022-10-16T14:18:46;23.10;99.90
10530;DHT22;5313;48.834;9.228;2022-10-16T14:21:16;23.10;99.90
10530;DHT22;5313;48.834;9.228;2022-10-16T14:23:42;23.10;99.90
10530;DHT22;5313;48.834;9.228;2022-10-16T14:28:33;23.00;99.90
10530;DHT22;5313;48.834;9.228;2022-10-16T14:31:00;22.90;99.90
10530;DHT22;5313;48.834;9.228;2022-10-16T14:38:38;22.80;99.90
10530;DHT22;5313;48.834;9.228;2022-10-16T14:41:04;22.90;99.90
10530;DHT22;5313;48.834;9.228;2022-10-16T14:46:11;22.90;99.90
10530;DHT22;5313;48.834;9.228;2022-10-16T14:48:45;22.90;99.90
10530;DHT22;5313;48.834;9.228;2022-10-16T14:51:16;22.90;99.90
10530;DHT22;5313;48.834;9.228;2022-10-16T14:53:42;22.80;99.90
10530;DHT22;5313;48.834;9.228;2022-10-16T14:56:29;22.90;99.90
10530;DHT22;5313;48.834;9.228;2022-10-16T14:58:55;22.90;99.90
10530;DHT22;5313;48.834;9.228;2022-10-16T15:01:21;23.00;99.90
10530;DHT22;5313;48.834;9.228;2022-10-16T15:03:47;22.80;99.90
10530;DHT22;5313;48.834;9.228;2022-10-16T15:06:14;22.70;99.90
10530;DHT22;5313;48.834;9.228;2022-10-16T15:08:40;22.70;99.90
10530;DHT22;5313;48.834;9.228;2022-10-16T15:11:14;22.70;99.90
10530;DHT22;5313;48.834;9.228;2022-10-16T15:13:40;22.70;99.90
10530;DHT22;5313;48.834;9.228;2022-10-16T15:16:14;22.70;99.90
10530;DHT22;5313;48.834;9.228;2022-10-16T15:18:40;22.70;99.90
10530;DHT22;5313;48.834;9.228;2022-10-16T15:21:06;22.70;99.90
10530;DHT22;5313;48.834;9.228;2022-10-16T15:23:32;22.70;99.90
10530;DHT22;5313;48.834;9.228;2022-10-16T15:25:57;22.70;99.90
10530;DHT22;5313;48.834;9.228;2022-10-16T15:28:24;22.80;99.90
10530;DHT22;5313;48.834;9.228;2022-10-16T15:30:52;22.70;99.90
10530;DHT22;5313;48.834;9.228;2022-10-16T15:33:21;22.60;99.90
10530;DHT22;5313;48.834;9.228;2022-10-16T15:35:49;22.50;99.90
10530;DHT22;5313;48.834;9.228;2022-10-16T15:38:15;22.40;99.90
10530;DHT22;5313;48.834;9.228;2022-10-16T15:40:41;22.30;99.90
10530;DHT22;5313;48.834;9.228;2022-10-16T15:43:07;22.20;99.90
10530;DHT22;5313;48.834;9.228;2022-10-16T15:45:33;22.20;99.90
10530;DHT22;5313;48.834;9.228;2022-10-16T15:47:58;22.20;99.90
10530;DHT22;5313;48.834;9.228;2022-10-16T15:50:24;22.10;99.90
10530;DHT22;5313;48.834;9.228;2022-10-16T15:52:50;22.10;99.90
10530;DHT22;5313;48.834;9.228;2022-10-16T15:55:16;22.00;99.90
10530;DHT22;5313;48.834;9.228;2022-10-16T15:57:44;22.00;99.90
10530;DHT22;5313;48.834;9.228;2022-10-16T16:00:13;21.90;99.90
10530;DHT22;5313;48.834;9.228;2022-10-16T16:02:41;22.10;99.90
10530;DHT22;5313;48.834;9.228;2022-10-16T16:05:07;22.00;99.90
10530;DHT22;5313;48.834;9.228;2022-10-16T16:07:34;22.00;99.90
10530;DHT22;5313;48.834;9.228;2022-10-16T16:10:00;21.90;99.90
10530;DHT22;5313;48.834;9.228;2022-10-16T16:12:26;21.90;99.90
10530;DHT22;5313;48.834;9.228;2022-10-16T16:14:51;21.90;99.90
10530;DHT22;5313;48.834;9.228;2022-10-16T16:17:17;21.80;99.90
10530;DHT22;5313;48.834;9.228;2022-10-16T16:19:43;21.70;99.90
10530;DHT22;5313;48.834;9.228;2022-10-16T16:22:08;21.60;99.90
10530;DHT22;5313;48.834;9.228;2022-10-16T16:24:34;21.50;99.90
10530;DHT22;5313;48.834;9.228;2022-10-16T16:27:00;21.40;99.90
10530;DHT22;5313;48.834;9.228;2022-10-16T16:29:25;21.40;99.90
10530;DHT22;5313;48.834;9.228;2022-10-16T16:31:51;21.20;99.90
10530;DHT22;5313;48.834;9.228;2022-10-16T16:34:23;21.30;99.90
10530;DHT22;5313;48.834;9.228;2022-10-16T16:36:49;21.20;99.90
10530;DHT22;5313;48.834;9.228;2022-10-16T16:39:15;21.10;99.90
10530;DHT22;5313;48.834;9.228;2022-10-16T16:41:40;20.90;99.90
10530;DHT22;5313;48.834;9.228;2022-10-16T16:44:08;20.60;99.90
10530;DHT22;5313;48.834;9.228;2022-10-16T16:46:34;20.50;99.90
10530;DHT22;5313;48.834;9.228;2022-10-16T16:49:00;20.30;99.90
10530;DHT22;5313;48.834;9.228;2022-10-16T16:51:26;20.40;99.90
10530;DHT22;5313;48.834;9.228;2022-10-16T16:53:53;20.50;99.90
10530;DHT22;5313;48.834;9.228;2022-10-16T16:56:20;20.40;99.90
10530;DHT22;5313;48.834;9.228;2022-10-16T16:58:51;20.40;99.90
10530;DHT22;5313;48.834;9.228;2022-10-16T17:01:17;20.40;99.90
10530;DHT22;5313;48.834;9.228;2022-10-16T17:03:43;20.40;99.90
10530;DHT22;5313;48.834;9.228;2022-10-16T17:06:10;20.50;99.90
10530;DHT22;5313;48.834;9.228;2022-10-16T17:08:37;19.90;99.90
10530;DHT22;5313;48.834;9.228;2022-10-16T17:11:04;19.70;99.90
10530;DHT22;5313;48.834;9.228;2022-10-16T17:13:32;19.80;99.90
10530;DHT22;5313;48.834;9.228;2022-10-16T17:16:00;19.90;99.90
10530;DHT22;5313;48.834;9.228;2022-10-16T17:18:26;20.00;99.90
10530;DHT22;5313;48.834;9.228;2022-10-16T17:20:51;19.90;99.90
10530;DHT22;5313;48.834;9.228;2022-10-16T17:23:18;19.80;99.90
10530;DHT22;5313;48.834;9.228;2022-10-16T17:25:45;19.60;99.90
10530;DHT22;5313;48.834;9.228;2022-10-16T17:28:11;19.50;99.90
10530;DHT22;5313;48.834;9.228;2022-10-16T17:30:39;19.30;99.90
10530;DHT22;5313;48.834;9.228;2022-10-16T17:33:05;19.40;99.90
10530;DHT22;5313;48.834;9.228;2022-10-16T17:35:44;19.40;99.90
10530;DHT22;5313;48.834;9.228;2022-10-16T17:38:12;19.40;99.90
10530;DHT22;5313;48.834;9.228;2022-10-16T17:40:38;19.40;99.90
10530;DHT22;5313;48.834;9.228;2022-10-16T17:43:05;19.30;99.90
10530;DHT22;5313;48.834;9.228;2022-10-16T17:45:35;19.20;99.90